Greenfield Park, Canada
Current Conditions -  °F | °C
As of 8:32 AM on Friday 24 Oct 2014 (Local Time) from CYHU Reporting Station
Overcast Overcast  
Wind Chill: 44°   Ceiling: 3400
Heat Index: 46°   Visibility: 9mi
Dew Point: 41°   Wind: 6mph
Humidity: 81%   Direction: 330°NNW
Pressure: 29.9"   Gusts: NA
Location:  45.5°N, 73.48°W
Report Text: CYHU 241232Z AUTO 33005KT 9SM OVC034 08/05 A2990 RMK SLP124
Loading
Personal Weather Stations






























Interactive Weather Map
Tropical Storm Tracking
New forecast layout! Learn more

10-Day Weather Forecast

Advertisements
Track Severe Weather on mobile